createdAt,value
2022-12-18T00:01:39.950Z,101306.69
2022-12-18T00:04:14.376Z,101310.81
2022-12-18T00:06:41.631Z,101312.84
2022-12-18T00:09:09.814Z,101325.03
2022-12-18T00:11:36.615Z,101322.06
2022-12-18T00:14:03.477Z,101339.34
2022-12-18T00:16:31.997Z,101327.50
2022-12-18T00:19:00.098Z,101335.97
2022-12-18T00:21:28.459Z,101336.69
2022-12-18T00:23:55.748Z,101337.00
2022-12-18T00:26:27.860Z,101338.41
2022-12-18T00:29:05.688Z,101345.59
2022-12-18T00:31:33.244Z,101333.22
2022-12-18T00:34:02.057Z,101352.13
2022-12-18T00:36:35.101Z,101348.78
2022-12-18T00:39:04.901Z,101364.19
2022-12-18T00:41:51.227Z,101363.19
2022-12-18T00:44:19.189Z,101369.94
2022-12-18T00:46:47.354Z,101364.28
2022-12-18T00:49:15.123Z,101359.19
2022-12-18T00:51:42.450Z,101361.22
2022-12-18T00:54:10.121Z,101366.13
2022-12-18T00:56:45.694Z,101362.66
2022-12-18T00:59:16.358Z,101369.09
2022-12-18T01:01:43.814Z,101375.81
2022-12-18T01:04:10.778Z,101380.50
2022-12-18T01:06:37.895Z,101389.41
2022-12-18T01:09:04.878Z,101381.31
2022-12-18T01:11:32.089Z,101385.13
2022-12-18T01:14:01.757Z,101387.75
2022-12-18T01:16:28.854Z,101393.41
2022-12-18T01:18:57.326Z,101395.03
2022-12-18T01:21:25.210Z,101394.09
2022-12-18T01:23:54.489Z,101405.66
2022-12-18T01:26:21.569Z,101413.84
2022-12-18T01:28:48.712Z,101414.53
2022-12-18T01:31:27.582Z,101405.00
2022-12-18T01:33:56.153Z,101400.34
2022-12-18T01:36:26.274Z,101401.69
2022-12-18T01:38:54.272Z,101400.72
2022-12-18T01:41:26.750Z,101402.28
2022-12-18T01:43:58.499Z,101403.69
2022-12-18T01:46:27.518Z,101413.41
2022-12-18T01:49:02.335Z,101415.88
2022-12-18T01:51:30.958Z,101415.56
2022-12-18T01:54:00.530Z,101430.94
2022-12-18T01:56:27.718Z,101435.72
2022-12-18T01:59:03.879Z,101437.84
2022-12-18T02:01:32.112Z,101425.91
2022-12-18T02:04:24.968Z,101425.50
2022-12-18T02:07:04.106Z,101431.31
2022-12-18T02:10:03.518Z,101422.31
2022-12-18T02:12:58.419Z,101416.03
2022-12-18T02:15:35.546Z,101437.06
2022-12-18T02:18:18.222Z,101437.91
2022-12-18T02:21:13.639Z,101436.34
2022-12-18T02:23:59.702Z,101425.81
2022-12-18T02:26:39.145Z,101428.06
2022-12-18T02:29:13.001Z,101429.03
2022-12-18T02:32:01.081Z,101442.47
2022-12-18T02:34:32.523Z,101446.31
2022-12-18T02:37:03.247Z,101445.94
2022-12-18T02:39:34.019Z,101464.06
2022-12-18T02:42:08.930Z,101465.09
2022-12-18T02:44:44.517Z,101472.81
2022-12-18T02:47:14.601Z,101478.81
2022-12-18T02:49:59.847Z,101476.53
2022-12-18T02:52:50.947Z,101488.75
2022-12-18T02:55:45.844Z,101507.09
2022-12-18T02:58:49.032Z,101497.16
2022-12-18T03:01:38.333Z,101495.94
2022-12-18T03:04:18.491Z,101488.81
2022-12-18T03:06:50.051Z,101484.78
2022-12-18T03:09:32.324Z,101488.72
2022-12-18T03:27:02.071Z,101493.09
2022-12-18T03:29:36.579Z,101488.84
2022-12-18T03:32:10.858Z,101486.25
2022-12-18T03:34:41.610Z,101486.47
2022-12-18T03:37:11.042Z,101485.97
2022-12-18T03:39:38.840Z,101492.22
2022-12-18T03:42:15.745Z,101497.03
2022-12-18T03:45:17.106Z,101508.47
2022-12-18T03:48:05.120Z,101515.34
2022-12-18T03:50:58.447Z,101518.25
2022-12-18T03:53:55.088Z,101511.59
2022-12-18T03:56:31.050Z,101525.38
2022-12-18T03:59:02.220Z,101539.44
2022-12-18T04:01:35.203Z,101553.22
2022-12-18T04:04:03.838Z,101558.69
2022-12-18T04:06:35.759Z,101563.63
2022-12-18T04:09:03.077Z,101579.06
2022-12-18T04:11:32.379Z,101597.53
2022-12-18T04:14:07.081Z,101589.31
2022-12-18T04:16:34.906Z,101614.44
2022-12-18T04:19:04.720Z,101614.44
2022-12-18T04:21:38.022Z,101617.00
2022-12-18T04:24:06.019Z,101628.06
2022-12-18T04:26:35.453Z,101629.84
2022-12-18T04:29:15.954Z,101642.28
2022-12-18T04:31:43.249Z,101642.28
2022-12-18T04:34:10.281Z,101640.84
2022-12-18T04:36:43.170Z,101652.22
2022-12-18T04:39:10.091Z,101647.38
2022-12-18T04:41:37.113Z,101654.09
2022-12-18T04:44:05.493Z,101666.81
2022-12-18T04:46:32.370Z,101673.50
2022-12-18T04:48:59.198Z,101673.97
2022-12-18T04:51:26.820Z,101681.91
2022-12-18T04:53:54.804Z,101679.25
2022-12-18T04:56:22.276Z,101688.97
2022-12-18T04:58:49.248Z,101688.16
2022-12-18T05:01:18.244Z,101695.84
2022-12-18T05:03:45.495Z,101704.97
2022-12-18T05:06:12.552Z,101714.34
2022-12-18T05:08:39.587Z,101718.53
2022-12-18T05:11:10.014Z,101727.59
2022-12-18T05:13:39.245Z,101731.00
2022-12-18T05:16:06.953Z,101728.81
2022-12-18T05:18:33.809Z,101726.63
2022-12-18T05:21:00.756Z,101738.75
2022-12-18T05:23:28.230Z,101745.13
2022-12-18T05:26:03.082Z,101748.41
2022-12-18T05:28:32.552Z,101751.50
2022-12-18T05:31:01.567Z,101762.22
2022-12-18T05:33:32.035Z,101768.28
2022-12-18T05:36:00.891Z,101775.41
2022-12-18T05:38:28.487Z,101778.44
2022-12-18T05:40:55.666Z,101783.38
2022-12-18T05:43:23.545Z,101793.00
2022-12-18T05:45:51.244Z,101797.13
2022-12-18T05:48:18.105Z,101801.78
2022-12-18T05:50:46.606Z,101797.38
2022-12-18T05:53:14.402Z,101809.75
2022-12-18T05:55:43.354Z,101825.41
2022-12-18T05:58:11.686Z,101827.34
2022-12-18T06:00:43.271Z,101841.06
2022-12-18T06:03:11.829Z,101843.50
2022-12-18T06:05:42.440Z,101842.91
2022-12-18T06:08:10.039Z,101853.63
2022-12-18T06:10:37.457Z,101864.63
2022-12-18T06:13:04.459Z,101868.47
2022-12-18T06:15:31.333Z,101885.19
2022-12-18T06:17:58.151Z,101901.66
2022-12-18T06:20:29.099Z,101912.09
2022-12-18T06:22:58.917Z,101918.63
2022-12-18T06:25:25.727Z,101937.34
2022-12-18T06:27:52.557Z,101937.84
2022-12-18T06:30:19.638Z,101932.88
2022-12-18T06:32:49.466Z,101961.91
2022-12-18T06:35:18.633Z,101960.53
2022-12-18T06:37:47.945Z,101971.03
2022-12-18T06:40:14.798Z,101970.25
2022-12-18T06:42:41.641Z,101977.03
2022-12-18T06:45:09.090Z,101978.50
2022-12-18T06:47:35.918Z,101984.22
2022-12-18T06:50:02.982Z,101985.31
2022-12-18T06:52:29.829Z,101984.75
2022-12-18T06:54:56.692Z,101979.28
2022-12-18T06:57:23.428Z,101986.03
2022-12-18T06:59:50.513Z,101988.53
2022-12-18T07:02:17.610Z,102002.50
2022-12-18T07:04:44.557Z,102004.88
2022-12-18T07:07:11.347Z,102010.19
2022-12-18T07:09:38.140Z,102012.69
2022-12-18T07:12:06.200Z,102013.25
2022-12-18T07:14:33.090Z,102005.53
2022-12-18T07:17:00.037Z,102011.44
2022-12-18T07:19:26.999Z,102018.03
2022-12-18T07:21:53.948Z,102014.25
2022-12-18T07:24:20.773Z,102030.97
2022-12-18T07:26:47.993Z,102032.66
2022-12-18T07:29:14.999Z,102042.97
2022-12-18T07:31:42.007Z,102038.63
2022-12-18T07:34:13.873Z,102041.41
2022-12-18T07:36:41.275Z,102052.69
2022-12-18T07:39:08.543Z,102053.69
2022-12-18T07:41:35.403Z,102048.81
2022-12-18T07:44:12.409Z,102043.69
2022-12-18T07:46:39.710Z,102051.97
2022-12-18T07:49:06.695Z,102053.31
2022-12-18T07:51:33.698Z,102052.53
2022-12-18T07:54:00.518Z,102061.34
2022-12-18T07:56:29.096Z,102061.72
2022-12-18T07:58:57.133Z,102073.31
2022-12-18T08:01:24.172Z,102065.44
2022-12-18T08:03:52.125Z,102068.44
2022-12-18T08:06:19.693Z,102076.47
2022-12-18T08:08:52.625Z,102081.91
2022-12-18T08:11:19.395Z,102070.63
2022-12-18T08:13:46.607Z,102079.47
2022-12-18T08:16:13.581Z,102082.66
2022-12-18T08:18:40.602Z,102082.16
2022-12-18T08:21:16.650Z,102067.88
2022-12-18T08:23:44.208Z,102079.41
2022-12-18T08:26:14.870Z,102070.97
2022-12-18T08:28:42.409Z,102074.03
2022-12-18T08:31:10.309Z,102073.91
2022-12-18T08:33:38.927Z,102087.66
2022-12-18T08:36:06.936Z,102087.72
2022-12-18T08:38:34.281Z,102078.56
2022-12-18T08:41:03.536Z,102078.72
2022-12-18T08:43:49.426Z,102074.38
2022-12-18T08:46:16.268Z,102075.97
2022-12-18T08:48:43.174Z,102065.28
2022-12-18T08:51:10.740Z,102083.88
2022-12-18T08:53:38.617Z,102084.53
2022-12-18T08:56:06.701Z,102082.16
2022-12-18T08:58:33.514Z,102078.13
2022-12-18T09:01:04.925Z,102077.88
2022-12-18T09:03:32.619Z,102073.28
2022-12-18T09:06:00.576Z,102077.75
2022-12-18T09:08:27.827Z,102076.53
2022-12-18T09:10:54.799Z,102069.34
2022-12-18T09:13:22.094Z,102080.13
2022-12-18T09:15:54.428Z,102074.50
2022-12-18T09:18:24.001Z,102069.63
2022-12-18T09:20:54.104Z,102069.53
2022-12-18T09:23:22.023Z,102064.16
2022-12-18T09:25:49.416Z,102065.94
2022-12-18T09:28:19.265Z,102076.97
2022-12-18T09:30:49.724Z,102068.56
2022-12-18T09:33:17.662Z,102072.56
2022-12-18T09:35:46.157Z,102073.38
2022-12-18T09:38:15.986Z,102074.31
2022-12-18T09:40:50.969Z,102074.03
2022-12-18T09:43:45.393Z,102081.66
2022-12-18T09:46:20.797Z,102069.59
2022-12-18T09:48:51.158Z,102077.06
2022-12-18T09:51:23.872Z,102076.81
2022-12-18T09:54:00.147Z,102068.75
2022-12-18T09:56:30.482Z,102076.81
2022-12-18T09:59:00.651Z,102068.97
2022-12-18T10:01:36.333Z,102066.41
2022-12-18T10:04:10.662Z,102060.97
2022-12-18T10:06:52.697Z,102059.66
2022-12-18T10:09:37.459Z,102072.84
2022-12-18T10:12:19.790Z,102069.59
2022-12-18T10:15:05.772Z,102064.50
2022-12-18T10:17:41.603Z,102059.81
2022-12-18T10:20:28.383Z,102055.28
2022-12-18T10:23:04.287Z,102056.47
2022-12-18T10:26:03.092Z,102063.09
2022-12-18T10:28:32.327Z,102065.25
2022-12-18T10:30:59.850Z,102072.69
2022-12-18T10:33:30.990Z,102068.38
2022-12-18T10:35:57.865Z,102074.94
2022-12-18T10:38:28.907Z,102076.56
2022-12-18T10:41:01.930Z,102075.34
2022-12-18T10:43:37.280Z,102072.94
2022-12-18T10:46:09.930Z,102079.66
2022-12-18T10:48:40.409Z,102088.50
2022-12-18T10:51:12.928Z,102085.56
2022-12-18T10:53:42.975Z,102087.91
2022-12-18T10:56:10.090Z,102095.44
2022-12-18T10:58:39.682Z,102101.44
2022-12-18T11:01:16.780Z,102104.31
2022-12-18T11:04:02.489Z,102097.97
2022-12-18T11:06:30.749Z,102094.25
2022-12-18T11:09:12.336Z,102101.88
2022-12-18T11:11:41.392Z,102112.81
2022-12-18T11:14:19.387Z,102118.88
2022-12-18T11:17:24.430Z,102119.72
2022-12-18T11:19:39.859Z,102121.84
2022-12-18T11:22:27.614Z,102113.91
2022-12-18T11:28:36.962Z,102124.47
2022-12-18T11:31:18.190Z,102130.63
2022-12-18T11:34:26.959Z,102125.69
2022-12-18T11:36:49.195Z,102130.41
2022-12-18T11:39:24.279Z,102116.47
2022-12-18T11:42:09.921Z,102129.91
2022-12-18T11:44:48.045Z,102135.41
2022-12-18T11:47:32.055Z,102137.38
2022-12-18T11:50:03.124Z,102128.38
2022-12-18T11:52:41.848Z,102118.66
2022-12-18T11:55:33.437Z,102123.03
2022-12-18T11:58:15.400Z,102122.25
2022-12-18T12:00:53.426Z,102115.50
2022-12-18T12:03:41.324Z,102123.47
2022-12-18T12:06:19.897Z,102121.91
2022-12-18T12:09:16.131Z,102130.97
2022-12-18T12:12:12.503Z,102145.22
2022-12-18T12:15:02.399Z,102148.75
2022-12-18T12:18:11.306Z,102157.91
2022-12-18T12:20:52.666Z,102156.03
2022-12-18T12:23:27.790Z,102172.25
2022-12-18T12:26:12.593Z,102174.44
2022-12-18T12:29:01.202Z,102182.09
2022-12-18T12:31:59.726Z,102182.84
2022-12-18T12:35:00.960Z,102194.38
2022-12-18T12:38:07.205Z,102188.09
2022-12-18T12:41:02.429Z,102192.13
2022-12-18T12:43:46.139Z,102188.34
2022-12-18T12:46:20.639Z,102190.84
2022-12-18T12:48:59.265Z,102208.75
2022-12-18T12:51:29.905Z,102216.78
2022-12-18T12:53:59.269Z,102209.75
2022-12-18T12:56:36.151Z,102220.06
2022-12-18T12:59:16.764Z,102225.94
2022-12-18T13:01:55.731Z,102228.69
2022-12-18T13:04:38.231Z,102220.56
2022-12-18T13:07:08.116Z,102224.06
2022-12-18T13:09:36.709Z,102218.31
2022-12-18T13:12:33.272Z,102231.19
2022-12-18T13:15:24.021Z,102227.59
2022-12-18T13:18:13.250Z,102216.13
2022-12-18T13:23:37.647Z,102235.88
2022-12-18T13:26:07.415Z,102244.63
2022-12-18T13:28:34.566Z,102244.78
2022-12-18T13:31:03.690Z,102247.63
2022-12-18T13:33:30.427Z,102257.59
2022-12-18T13:36:03.341Z,102249.19
2022-12-18T13:38:33.173Z,102238.22
2022-12-18T13:41:02.031Z,102255.31
2022-12-18T13:43:37.912Z,102252.63
2022-12-18T13:46:23.462Z,102256.19
2022-12-18T13:49:13.621Z,102265.25
2022-12-18T13:51:54.724Z,102254.78
2022-12-18T13:54:35.784Z,102259.06
2022-12-18T13:57:04.559Z,102269.59
2022-12-18T13:59:36.378Z,102285.75
2022-12-18T14:02:23.687Z,102302.34
2022-12-18T14:04:52.788Z,102305.53
2022-12-18T14:07:31.438Z,102313.19
2022-12-18T14:10:33.848Z,102301.63
2022-12-18T14:12:59.140Z,102304.69
2022-12-18T14:15:28.110Z,102313.00
2022-12-18T14:18:26.510Z,102314.34
2022-12-18T14:20:58.764Z,102314.91
2022-12-18T14:23:38.454Z,102310.38
2022-12-18T14:26:31.076Z,102313.94
2022-12-18T14:29:02.183Z,102317.16
2022-12-18T14:31:31.707Z,102337.13
2022-12-18T14:33:58.714Z,102337.13
2022-12-18T14:36:30.070Z,102352.56
2022-12-18T14:39:00.220Z,102358.84
2022-12-18T14:41:27.714Z,102360.25
2022-12-18T14:43:55.721Z,102362.31
2022-12-18T14:46:28.622Z,102356.00
2022-12-18T14:48:56.555Z,102357.03
2022-12-18T14:51:28.223Z,102347.47
2022-12-18T14:53:58.696Z,102352.13
2022-12-18T14:56:50.836Z,102373.25
2022-12-18T14:59:25.038Z,102377.59
2022-12-18T15:02:01.362Z,102385.19
2022-12-18T15:04:34.949Z,102391.03
2022-12-18T15:07:18.079Z,102386.31
2022-12-18T15:10:04.788Z,102391.19
2022-12-18T15:12:37.598Z,102386.31
2022-12-18T15:28:52.415Z,102406.59
2022-12-18T15:31:24.440Z,102402.66
2022-12-18T15:33:53.278Z,102412.41
2022-12-18T15:36:26.413Z,102426.19
2022-12-18T15:38:56.210Z,102418.31
2022-12-18T15:41:36.334Z,102420.84
2022-12-18T15:44:04.377Z,102431.44
2022-12-18T15:46:32.079Z,102437.69
2022-12-18T15:49:02.683Z,102431.03
2022-12-18T15:51:39.638Z,102430.22
2022-12-18T15:54:13.027Z,102441.03
2022-12-18T15:56:58.389Z,102449.13
2022-12-18T15:59:25.526Z,102454.88
2022-12-18T16:01:54.167Z,102453.78
2022-12-18T16:04:22.852Z,102454.53
2022-12-18T16:09:38.200Z,102457.53
2022-12-18T16:12:07.244Z,102460.78
2022-12-18T16:14:35.136Z,102459.44
2022-12-18T16:17:10.019Z,102469.16
2022-12-18T16:19:36.907Z,102466.34
2022-12-18T16:22:03.728Z,102478.81
2022-12-18T16:24:37.123Z,102486.22
2022-12-18T16:27:04.607Z,102489.50
2022-12-18T16:29:31.444Z,102478.41
2022-12-18T16:32:00.153Z,102483.19
2022-12-18T16:34:32.876Z,102473.50
2022-12-18T16:37:08.021Z,102470.22
2022-12-18T16:39:36.051Z,102482.06
2022-12-18T16:42:20.804Z,102476.19
2022-12-18T16:44:49.336Z,102487.16
2022-12-18T16:47:17.221Z,102486.63
2022-12-18T16:49:47.497Z,102490.44
2022-12-18T16:52:15.357Z,102498.91
2022-12-18T16:54:42.221Z,102493.44
2022-12-18T16:57:13.041Z,102496.22
2022-12-18T16:59:40.411Z,102501.41
2022-12-18T17:02:13.285Z,102512.75
2022-12-18T17:04:40.335Z,102514.66
2022-12-18T17:07:07.168Z,102511.59
2022-12-18T17:09:34.285Z,102519.22
2022-12-18T17:12:04.203Z,102524.09
2022-12-18T17:14:33.431Z,102528.50
2022-12-18T17:19:50.233Z,102522.22
2022-12-18T17:22:17.248Z,102524.00
2022-12-18T17:24:44.381Z,102519.00
2022-12-18T17:27:11.285Z,102514.13
2022-12-18T17:29:41.281Z,102517.47
2022-12-18T17:32:13.594Z,102523.53
2022-12-18T17:34:40.937Z,102523.66
2022-12-18T17:37:08.304Z,102525.09
2022-12-18T17:39:37.789Z,102525.94
2022-12-18T17:42:05.223Z,102531.38
2022-12-18T17:44:34.891Z,102542.00
2022-12-18T17:47:02.518Z,102534.50
2022-12-18T17:49:29.952Z,102536.06
2022-12-18T17:51:56.827Z,102544.63
2022-12-18T17:54:24.234Z,102550.69
2022-12-18T17:56:51.273Z,102535.94
2022-12-18T17:59:18.771Z,102542.59
2022-12-18T18:01:45.973Z,102546.41
2022-12-18T18:04:13.457Z,102555.19
2022-12-18T18:06:41.032Z,102549.03
2022-12-18T18:09:15.139Z,102532.38
2022-12-18T18:12:03.165Z,102518.09
2022-12-18T18:14:30.323Z,102522.97
2022-12-18T18:16:58.209Z,102535.34
2022-12-18T18:19:31.996Z,102541.88
2022-12-18T18:21:58.851Z,102545.22
2022-12-18T18:24:26.063Z,102548.53
2022-12-18T18:26:53.376Z,102554.22
2022-12-18T18:29:23.240Z,102571.63
2022-12-18T18:31:50.383Z,102570.56
2022-12-18T18:34:20.654Z,102562.56
2022-12-18T18:36:47.764Z,102557.19
2022-12-18T18:39:15.013Z,102562.78
2022-12-18T18:41:43.264Z,102565.44
2022-12-18T18:44:15.904Z,102564.22
2022-12-18T18:46:42.812Z,102556.38
2022-12-18T18:49:10.225Z,102577.53
2022-12-18T18:51:37.088Z,102577.31
2022-12-18T18:54:04.137Z,102591.34
2022-12-18T18:59:19.334Z,102599.19
2022-12-18T19:01:50.461Z,102596.22
2022-12-18T19:04:17.519Z,102602.88
2022-12-18T19:06:46.704Z,102613.75
2022-12-18T19:09:14.189Z,102599.63
2022-12-18T19:11:59.587Z,102600.44
2022-12-18T19:14:26.543Z,102616.75
2022-12-18T19:16:54.272Z,102611.66
2022-12-18T19:19:22.010Z,102620.13
2022-12-18T19:21:50.223Z,102609.88
2022-12-18T19:24:17.076Z,102605.09
2022-12-18T19:26:43.992Z,102619.09
2022-12-18T19:29:12.130Z,102606.69
2022-12-18T19:31:40.413Z,102606.34
2022-12-18T19:34:07.940Z,102608.47
2022-12-18T19:36:38.118Z,102604.81
2022-12-18T19:39:13.714Z,102599.34
2022-12-18T19:41:41.356Z,102595.69
2022-12-18T19:44:10.083Z,102610.53
2022-12-18T19:46:40.586Z,102603.53
2022-12-18T19:49:11.148Z,102610.28
2022-12-18T19:51:38.626Z,102614.78
2022-12-18T19:54:05.864Z,102617.38
2022-12-18T19:56:35.037Z,102613.94
2022-12-18T19:59:03.846Z,102620.47
2022-12-18T20:01:31.093Z,102625.94
2022-12-18T20:03:59.036Z,102613.31
2022-12-18T20:06:33.019Z,102608.41
2022-12-18T20:09:03.853Z,102611.75
2022-12-18T20:11:31.022Z,102608.69
2022-12-18T20:13:58.653Z,102613.34
2022-12-18T20:16:25.624Z,102617.53
2022-12-18T20:18:52.592Z,102629.59
2022-12-18T20:21:19.741Z,102638.53
2022-12-18T20:23:46.618Z,102631.31
2022-12-18T20:26:14.143Z,102630.50
2022-12-18T20:28:41.078Z,102648.38
2022-12-18T20:31:10.582Z,102649.06
2022-12-18T20:33:42.002Z,102646.28
2022-12-18T20:36:14.336Z,102658.72
2022-12-18T20:38:42.695Z,102656.50
2022-12-18T20:41:17.799Z,102655.06
2022-12-18T20:43:45.425Z,102650.22
2022-12-18T20:46:14.968Z,102667.63
2022-12-18T20:48:43.462Z,102662.97
2022-12-18T20:51:17.572Z,102656.97
2022-12-18T20:53:45.464Z,102654.47
2022-12-18T20:56:20.828Z,102661.88
2022-12-18T20:58:49.981Z,102663.84
2022-12-18T21:01:19.973Z,102676.69
2022-12-18T21:03:47.813Z,102670.06
2022-12-18T21:06:16.871Z,102675.53
2022-12-18T21:08:44.345Z,102686.53
2022-12-18T21:11:46.676Z,102686.47
2022-12-18T21:14:19.447Z,102695.88
2022-12-18T21:16:46.885Z,102687.16
2022-12-18T21:19:17.861Z,102698.91
2022-12-18T21:21:45.848Z,102697.69
2022-12-18T21:24:13.363Z,102689.28
2022-12-18T21:26:45.876Z,102701.25
2022-12-18T21:29:23.417Z,102702.94
2022-12-18T21:31:51.382Z,102712.13
2022-12-18T21:34:23.202Z,102711.03
2022-12-18T21:36:50.170Z,102715.66
2022-12-18T21:39:17.778Z,102716.69
2022-12-18T21:42:05.661Z,102717.16
2022-12-18T21:44:33.967Z,102719.44
2022-12-18T21:47:21.963Z,102713.47
2022-12-18T21:49:51.988Z,102710.28
2022-12-18T21:52:19.519Z,102710.56
2022-12-18T21:54:48.403Z,102707.53
2022-12-18T21:57:15.276Z,102712.63
2022-12-18T21:59:43.741Z,102705.09
2022-12-18T22:02:18.947Z,102711.25
2022-12-18T22:04:47.124Z,102709.22
2022-12-18T22:07:16.453Z,102706.69
2022-12-18T22:09:43.816Z,102701.38
2022-12-18T22:12:13.399Z,102702.09
2022-12-18T22:14:40.227Z,102703.50
2022-12-18T22:17:07.198Z,102708.13
2022-12-18T22:19:42.696Z,102709.47
2022-12-18T22:22:09.920Z,102704.53
2022-12-18T22:24:36.807Z,102700.38
2022-12-18T22:27:04.400Z,102713.63
2022-12-18T22:29:50.578Z,102707.22
2022-12-18T22:32:22.235Z,102720.69
2022-12-18T22:35:04.934Z,102728.63
2022-12-18T22:37:34.198Z,102726.59
2022-12-18T22:40:03.188Z,102728.88
2022-12-18T22:42:31.161Z,102742.25
2022-12-18T22:44:57.999Z,102741.97
2022-12-18T22:47:29.440Z,102740.78
2022-12-18T22:49:57.529Z,102743.38
2022-12-18T22:52:24.988Z,102745.09
2022-12-18T22:54:53.275Z,102748.09
2022-12-18T22:57:24.326Z,102750.38
2022-12-18T22:59:51.546Z,102754.06
2022-12-18T23:02:19.324Z,102758.28
2022-12-18T23:04:47.744Z,102755.69
2022-12-18T23:07:15.597Z,102763.66
2022-12-18T23:09:42.952Z,102762.81
2022-12-18T23:12:17.090Z,102763.72
2022-12-18T23:14:44.082Z,102759.09
2022-12-18T23:17:11.176Z,102764.78
2022-12-18T23:19:38.049Z,102759.09
2022-12-18T23:22:10.011Z,102755.13
2022-12-18T23:24:38.392Z,102759.53
2022-12-18T23:27:06.516Z,102765.16
2022-12-18T23:29:38.383Z,102770.41
2022-12-18T23:32:05.244Z,102764.50
2022-12-18T23:34:32.122Z,102766.81
2022-12-18T23:36:58.988Z,102772.44
2022-12-18T23:39:29.850Z,102771.69
2022-12-18T23:42:00.594Z,102769.81
2022-12-18T23:44:27.830Z,102772.72
2022-12-18T23:46:55.464Z,102774.81
2022-12-18T23:49:22.695Z,102778.16
2022-12-18T23:51:49.622Z,102786.75
2022-12-18T23:54:16.533Z,102789.69
2022-12-18T23:56:43.355Z,102788.09
2022-12-18T23:59:10.398Z,102785.56
